Latest Weather Observations for Roseworthy

IDS60801

Issued at 2:31 pm CST Wednesday 1 July 2015 (issued every 30 minutes, with the page automatically refreshed every 10 minutes)

About weather observations | Map of weather stations | Latest weather observations for SA | Other Formats
Station Details ID: 023122 Name: ROSEWORTHY AWS Lat: -34.51 Lon: 138.68 Height: 65.0 m
Data from the previous 72 hours. | See also: Recent months at Roseworthy
Date/Time
CST
Temp
°C
App
Temp
°C
Dew
Point
Rel
Hum
%
Delta-T
°C
Wind Press
QNH
hPa
Press
MSL
hPa
Rain
since 9 am
mm
Dir
 
Spd
km/h
Gust
km/h
Spd
kts
Gust
kts
01/02:30pm 13.7 9.6 2.3 46 5.0 NNW 13 19 7 10 1026.6 - 0.0
01/02:00pm 14.6 10.8 1.8 42 5.6 NW 11 17 6 9 1027.2 - 0.0
01/01:30pm 14.4 9.9 2.0 43 5.5 N 15 20 8 11 1027.6 - 0.0
01/01:00pm 13.9 9.4 2.2 45 5.1 NW 15 22 8 12 1028.2 - 0.0
01/12:30pm 13.6 8.6 1.6 44 5.2 NW 17 22 9 12 1028.6 - 0.0
01/12:00pm 13.5 7.9 1.5 44 5.1 NW 20 26 11 14 1029.4 1029.6 0.0
01/11:30am 13.4 9.4 2.6 48 4.8 NW 13 20 7 11 1029.6 - 0.0
01/11:00am 12.8 9.3 3.7 54 4.1 NNW 11 13 6 7 1030.0 - 0.0
01/10:30am 11.8 8.7 3.6 57 3.7 N 9 11 5 6 1030.5 - 0.0
01/10:00am 11.3 8.0 4.3 62 3.1 N 11 15 6 8 1030.3 - 0.0
01/09:30am 9.3 5.3 4.9 74 2.0 NNE 15 17 8 9 1030.2 - 0.0
01/09:00am 7.5 3.3 3.9 78 1.5 NE 15 17 8 9 1030.0 1030.2 0.0
01/08:30am 5.7 0.9 2.5 80 1.3 NE 17 20 9 11 1030.0 - 0.0
01/08:00am 4.8 0.0 2.7 86 0.8 NE 17 19 9 10 1030.1 - 0.0
01/07:30am 2.9 -1.7 1.7 92 0.5 NE 15 17 8 9 1030.1 - 0.0
01/07:00am 1.1 -2.6 -0.1 92 0.4 E 9 11 5 6 1030.0 - 0.0
01/06:30am 0.8 -2.6 -0.5 91 0.5 ENE 7 9 4 5 1029.9 - 0.0
01/06:00am 1.8 -1.4 0.6 92 0.4 E 7 7 4 4 1029.6 1029.8 0.0
01/05:30am 1.0 -3.1 -0.3 91 0.5 ENE 11 11 6 6 1029.4 - 0.0
01/05:00am 1.5 -2.5 0.2 91 0.5 ENE 11 13 6 7 1029.2 - 0.0
01/04:30am 1.8 -2.6 0.6 92 0.4 NE 13 13 7 7 1029.1 - 0.0
01/04:00am 1.1 -3.0 -0.2 91 0.5 NE 11 11 6 6 1029.3 - 0.0
01/03:30am 1.6 -1.7 0.1 90 0.6 N 7 9 4 5 1029.5 - 0.0
01/03:00am 2.8 -0.1 1.6 92 0.5 NW 6 7 3 4 1029.4 1029.6 0.0
01/02:30am 2.8 1.0 1.3 90 0.6 CALM 0 0 0 0 1029.3 - 0.0
01/02:00am 2.4 -0.6 0.5 87 0.7 ESE 6 7 3 4 1029.4 - 0.0
01/01:30am 4.5 2.9 2.7 88 0.7 CALM 0 0 0 0 1029.4 - 0.0
01/01:00am 4.6 2.7 2.8 88 0.7 NE 2 9 1 5 1029.5 - 0.0
01/12:30am 4.8 1.9 2.5 85 0.9 NNE 7 11 4 6 1029.5 - 0.0
01/12:00am 6.0 2.9 3.7 85 1.0 NNE 9 11 5 6 1029.6 1029.8 0.0
 
Date/Time
CST
Temp
°C
App
Temp
°C
Dew
Point
Rel
Hum
%
Delta-T
°C
Wind Press
QNH
hPa
Press
MSL
hPa
Rain
since 9 am
mm
Dir
 
Spd
km/h
Gust
km/h
Spd
kts
Gust
kts
30/11:30pm 5.7 2.9 3.0 83 1.1 N 7 9 4 5 1029.9 - 0.0
30/11:00pm 7.2 4.7 4.0 80 1.4 E 6 11 3 6 1029.7 - 0.0
30/10:30pm 8.0 6.7 4.2 77 1.7 CALM 0 0 0 0 1030.1 - 0.0
30/10:00pm 9.0 7.4 4.6 74 2.0 ESE 2 7 1 4 1030.1 - 0.0
30/09:30pm 9.5 6.2 4.7 72 2.1 N 11 13 6 7 1030.4 - 0.0
30/09:00pm 9.6 7.0 4.4 70 2.3 NNE 7 9 4 5 1030.6 1030.8 0.0
30/08:30pm 9.6 8.3 4.2 69 2.4 CALM 0 0 0 0 1030.6 - 0.0
30/08:00pm 9.7 8.5 4.5 70 2.3 CALM 0 0 0 0 1030.3 - 0.0
30/07:30pm 9.9 8.6 4.3 68 2.5 CALM 0 0 0 0 1030.5 - 0.0
30/07:00pm 10.0 7.8 3.3 63 2.9 WSW 4 7 2 4 1030.2 - 0.0
30/06:30pm 10.4 8.8 2.7 59 3.3 CALM 0 0 0 0 1029.7 - 0.0
30/06:00pm 10.6 7.8 2.9 59 3.3 SSW 7 9 4 5 1029.4 1029.6 0.0
30/05:30pm 11.2 8.0 3.0 57 3.6 SW 9 13 5 7 1029.2 - 0.0
30/05:00pm 11.9 8.4 3.4 56 3.8 SSW 11 15 6 8 1029.0 - 0.0
30/04:30pm 12.3 8.3 2.7 52 4.2 SSW 13 17 7 9 1028.7 - 0.0
30/04:00pm 12.7 8.3 2.8 51 4.4 SSW 15 19 8 10 1028.7 - 0.0
30/03:30pm 13.3 9.0 3.1 50 4.6 SSW 15 20 8 11 1028.5 - 0.0
30/03:00pm 14.1 10.6 3.6 49 4.7 SSW 11 15 6 8 1028.6 1028.8 0.0
30/02:30pm 14.2 10.8 2.1 44 5.3 SSE 9 15 5 8 1028.6 - 0.0
30/02:00pm 13.6 10.5 3.7 51 4.5 S 9 19 5 10 1028.6 - 0.0
30/01:30pm 13.2 10.0 3.0 50 4.5 S 9 13 5 7 1029.0 - 0.0
30/01:00pm 14.0 10.8 2.9 47 5.0 S 9 20 5 11 1029.1 - 0.0
30/12:30pm 13.7 10.9 2.9 48 4.8 SSW 7 13 4 7 1029.7 - 0.0
30/12:00pm 13.1 10.1 1.8 46 4.8 WSW 7 15 4 8 1030.1 1030.3 0.0
30/11:30am 13.0 10.3 2.5 49 4.6 W 6 11 3 6 1030.6 - 0.0
30/11:00am 12.5 9.8 2.7 51 4.3 WNW 6 9 3 5 1030.9 - 0.0
30/10:30am 11.4 8.3 3.4 58 3.5 N 9 11 5 6 1030.9 - 0.0
30/10:00am 10.2 8.4 3.5 63 2.9 E 2 7 1 4 1031.2 - 0.0
30/09:30am 9.0 7.8 4.8 75 1.9 CALM 0 6 0 3 1030.9 - 0.0
30/09:00am 8.2 7.0 4.8 79 1.5 CALM 0 0 0 0 1030.6 1030.8 0.0
30/08:30am 7.4 6.1 4.2 80 1.4 CALM 0 0 0 0 1030.5 - 0.0
30/08:00am 7.1 5.8 4.1 81 1.3 CALM 0 0 0 0 1030.2 - 0.0
30/07:30am 7.1 4.4 3.5 78 1.5 S 7 9 4 5 1030.0 - 0.0
30/07:00am 7.1 4.3 3.3 77 1.6 N 7 9 4 5 1029.5 - 0.0
30/06:30am 7.2 4.1 3.4 77 1.6 NNE 9 11 5 6 1029.3 - 0.0
30/06:00am 7.4 4.3 3.8 78 1.5 NNE 9 11 5 6 1029.1 1029.3 0.0
30/05:30am 7.2 4.6 4.0 80 1.4 NNE 7 9 4 5 1028.9 - 0.0
30/05:00am 7.0 4.5 4.0 81 1.3 N 6 9 3 5 1029.0 - 0.0
30/04:30am 7.2 5.8 3.8 79 1.5 CALM 0 0 0 0 1028.8 - 0.0
30/04:00am 7.4 5.2 3.6 77 1.6 SE 4 9 2 5 1028.7 - 0.0
30/03:30am 7.3 5.9 3.7 78 1.5 CALM 0 0 0 0 1028.6 - 0.0
30/03:00am 7.8 5.1 3.5 74 1.8 S 7 9 4 5 1028.7 1028.9 0.0
30/02:30am 7.8 4.6 3.3 73 1.9 NNE 9 11 5 6 1028.7 - 0.0
30/02:00am 8.2 5.5 3.5 72 2.0 ESE 7 11 4 6 1029.0 - 0.0
30/01:30am 8.0 5.3 3.7 74 1.9 ESE 7 11 4 6 1029.0 - 0.0
30/01:00am 8.6 7.1 2.8 67 2.5 CALM 0 0 0 0 1029.0 - 0.0
30/12:30am 9.1 6.8 2.9 65 2.7 ENE 4 7 2 4 1029.5 - 0.0
30/12:00am 8.5 7.1 3.6 71 2.1 CALM 0 0 0 0 1029.7 1029.9 0.0
 
Date/Time
CST
Temp
°C
App
Temp
°C
Dew
Point
Rel
Hum
%
Delta-T
°C
Wind Press
QNH
hPa
Press
MSL
hPa
Rain
since 9 am
mm
Dir
 
Spd
km/h
Gust
km/h
Spd
kts
Gust
kts
29/11:30pm 8.7 6.9 3.3 69 2.3 SE 2 6 1 3 1029.9 - 0.0
29/11:00pm 9.1 5.6 3.3 67 2.5 N 11 13 6 7 1030.0 - 0.0
29/10:30pm 9.5 6.0 3.3 65 2.7 NNE 11 15 6 8 1030.0 - 0.0
29/10:00pm 9.3 6.2 3.5 67 2.5 NE 9 11 5 6 1030.1 - 0.0
29/09:30pm 9.4 6.3 3.6 67 2.5 ENE 9 11 5 6 1030.2 - 0.0
29/09:00pm 9.8 6.6 3.3 64 2.8 NE 9 9 5 5 1030.3 1030.5 0.0
29/08:30pm 9.9 6.7 3.0 62 3.0 NE 9 11 5 6 1030.4 - 0.0
29/08:00pm 9.7 6.5 3.2 64 2.8 NE 9 11 5 6 1030.3 - 0.0
29/07:30pm 10.3 7.4 2.7 59 3.3 ENE 7 11 4 6 1030.3 - 0.0
29/07:00pm 10.6 7.3 2.7 58 3.4 ENE 9 13 5 7 1030.2 - 0.0
29/06:30pm 10.9 7.3 2.7 57 3.5 NE 11 13 6 7 1029.9 - 0.0
29/06:00pm 11.3 6.8 2.3 54 3.8 ENE 15 17 8 9 1029.6 1029.8 0.0
29/05:30pm 11.8 7.7 2.5 53 4.0 ENE 13 15 7 8 1029.5 - 0.0
29/05:00pm 12.6 8.5 2.2 49 4.5 ENE 13 17 7 9 1029.5 - 0.0
29/04:30pm 12.8 8.2 1.8 47 4.7 ENE 15 19 8 10 1029.5 - 0.0
29/04:00pm 13.2 8.7 2.4 48 4.7 NE 15 19 8 10 1029.4 - 0.0
29/03:30pm 13.5 9.4 2.4 47 4.9 NE 13 17 7 9 1029.5 - 0.0
29/03:00pm 14.3 10.6 2.5 45 5.2 E 11 17 6 9 1029.6 1029.8 0.0
29/02:30pm 14.0 10.0 2.6 46 5.1 NE 13 20 7 11 1029.8 - 0.0
29/02:00pm 13.5 10.2 2.4 47 4.9 NE 9 19 5 10 1030.0 - 0.0
29/01:30pm 13.4 8.6 2.6 48 4.8 NE 17 20 9 11 1030.4 - 0.0
29/01:00pm 13.7 9.2 2.3 46 5.0 NE 15 20 8 11 1031.0 - 0.0
29/12:30pm 13.7 9.0 2.9 48 4.8 ENE 17 20 9 11 1031.4 - 0.0
29/12:00pm 13.2 9.2 3.0 50 4.5 NNE 13 17 7 9 1032.0 1032.2 0.0
29/11:30am 12.7 8.7 4.7 58 3.7 NE 15 20 8 11 1032.7 - 0.0
29/11:00am 12.4 8.9 5.3 62 3.3 NE 13 17 7 9 1033.0 - 0.0
29/10:30am 11.6 8.2 5.7 67 2.7 NE 13 15 7 8 1033.1 - 0.0
29/10:00am 10.4 7.1 6.2 75 2.0 NNE 13 17 7 9 1033.2 - 0.0
29/09:30am 9.4 6.3 5.6 77 1.7 NE 11 15 6 8 1033.2 - 0.0
29/09:00am 8.5 4.9 5.1 79 1.5 ENE 13 15 7 8 1032.9 1033.1 0.0
29/08:30am 7.3 3.6 4.3 81 1.3 NE 13 17 7 9 1032.8 - 0.0
29/08:00am 6.4 2.2 3.7 83 1.1 NE 15 19 8 10 1032.7 - 0.0
29/07:30am 5.8 1.5 3.3 84 1.0 NE 15 20 8 11 1032.5 - 0.0
29/07:00am 5.6 0.9 3.1 84 1.0 NE 17 20 9 11 1032.4 - 0.0
29/06:30am 5.3 0.5 2.8 84 1.0 NE 17 20 9 11 1032.1 - 0.0
29/06:00am 4.3 -0.2 2.3 87 0.8 NE 15 20 8 11 1032.0 1032.2 0.0
29/05:30am 2.8 -0.4 0.9 87 0.7 NE 7 11 4 6 1031.9 - 0.0
29/05:00am 3.2 -0.7 1.3 87 0.7 ENE 11 13 6 7 1031.7 - 0.0
29/04:30am 2.9 -1.0 1.1 88 0.7 ENE 11 17 6 9 1031.6 - 0.0
29/04:00am 3.1 -1.2 1.3 88 0.7 ENE 13 15 7 8 1031.7 - 0.0
29/03:30am 3.5 -0.7 1.7 88 0.7 ENE 13 15 7 8 1032.1 - 0.0
29/03:00am 2.8 -1.1 1.2 89 0.6 ENE 11 13 6 7 1032.2 1032.4 0.0
29/02:30am 2.5 -1.1 0.9 89 0.6 ENE 9 11 5 6 1032.5 - 0.0
29/02:00am 3.2 -0.6 1.6 89 0.6 E 11 13 6 7 1032.4 - 0.0
29/01:30am 3.7 0.7 1.9 88 0.7 E 7 11 4 6 1032.5 - 0.0
29/01:00am 3.5 -0.3 1.5 87 0.8 ENE 11 13 6 7 1032.6 - 0.0
29/12:30am 3.5 -0.3 1.9 89 0.6 ENE 11 13 6 7 1032.8 - 0.0
29/12:00am 3.7 -0.1 1.9 88 0.7 ENE 11 13 6 7 1033.1 1033.3 0.0
 
Date/Time
CST
Temp
°C
App
Temp
°C
Dew
Point
Rel
Hum
%
Delta-T
°C
Wind Press
QNH
hPa
Press
MSL
hPa
Rain
since 9 am
mm
Dir
 
Spd
km/h
Gust
km/h
Spd
kts
Gust
kts
28/11:30pm 3.8 0.0 1.7 86 0.8 E 11 13 6 7 1033.3 - 0.0
28/11:00pm 4.9 1.3 2.8 86 0.9 ENE 11 13 6 7 1033.3 - 0.0
28/10:30pm 4.3 0.6 2.3 87 0.8 ENE 11 13 6 7 1033.4 - 0.0
28/10:00pm 4.4 1.1 2.3 86 0.8 E 9 9 5 5 1033.5 - 0.0
28/09:30pm 5.0 2.1 2.4 83 1.1 E 7 11 4 6 1033.4 - 0.0
28/09:00pm 4.8 0.7 2.5 85 0.9 NE 13 17 7 9 1033.4 1033.6 0.0
28/08:30pm 5.6 2.4 2.9 83 1.1 ENE 9 11 5 6 1033.3 - 0.0
28/08:00pm 6.3 2.9 3.8 84 1.1 ENE 11 13 6 7 1033.2 - 0.0
28/07:30pm 6.5 3.0 3.7 82 1.2 ENE 11 13 6 7 1033.2 - 0.0
28/07:00pm 6.9 3.4 3.7 80 1.4 ENE 11 13 6 7 1033.0 - 0.0
28/06:30pm 6.7 3.2 3.3 79 1.4 ENE 11 13 6 7 1032.9 - 0.0
28/06:00pm 7.0 3.5 3.3 77 1.5 E 11 13 6 7 1032.5 1032.7 0.0
28/05:30pm 9.5 6.5 4.1 69 2.4 E 9 11 5 6 1032.3 - 0.0
28/05:00pm 12.6 9.4 5.1 60 3.5 E 11 11 6 6 1032.0 - 0.0
28/04:30pm 14.5 11.6 4.5 51 4.6 ENE 9 13 5 7 1032.0 - 0.0
28/04:00pm 15.1 11.4 4.5 49 4.9 NE 13 17 7 9 1032.0 - 0.0
28/03:30pm 15.5 12.2 4.8 49 5.0 NE 11 15 6 8 1032.2 - 0.0
28/03:00pm 15.4 11.0 4.5 48 5.1 NNE 17 20 9 11 1032.3 1032.5 0.0

Other Formats:

Comma delimited format used in spreadsheet applications
http://www.bom.gov.au/fwo/IDS60801/IDS60801.95671.axf

JavaScript Object Notation format (JSON) in row-major order
http://www.bom.gov.au/fwo/IDS60801/IDS60801.95671.json